sensor_id;sensor_type;location;lat;lon;timestamp;P1;durP1;ratioP1;P2;durP2;ratioP2
14292;SDS011;62290;59.420;17.842;2023-10-31T00:02:17;6.68;;;1.67;;
14292;SDS011;62290;59.420;17.842;2023-10-31T00:04:45;3.50;;;1.20;;
14292;SDS011;62290;59.420;17.842;2023-10-31T00:07:13;4.03;;;1.17;;
14292;SDS011;62290;59.420;17.842;2023-10-31T00:09:41;4.00;;;0.98;;
14292;SDS011;62290;59.420;17.842;2023-10-31T00:12:09;4.03;;;1.13;;
14292;SDS011;62290;59.420;17.842;2023-10-31T00:14:38;3.45;;;1.08;;
14292;SDS011;62290;59.420;17.842;2023-10-31T00:17:08;6.05;;;1.40;;
14292;SDS011;62290;59.420;17.842;2023-10-31T00:19:36;6.07;;;1.70;;
14292;SDS011;62290;59.420;17.842;2023-10-31T00:22:04;4.18;;;1.20;;
14292;SDS011;62290;59.420;17.842;2023-10-31T00:24:32;3.88;;;1.45;;
14292;SDS011;62290;59.420;17.842;2023-10-31T00:27:00;2.33;;;1.10;;
14292;SDS011;62290;59.420;17.842;2023-10-31T00:29:28;3.28;;;1.17;;
14292;SDS011;62290;59.420;17.842;2023-10-31T00:31:56;5.55;;;1.30;;
14292;SDS011;62290;59.420;17.842;2023-10-31T00:34:25;4.03;;;1.65;;
14292;SDS011;62290;59.420;17.842;2023-10-31T00:36:53;3.60;;;0.90;;
14292;SDS011;62290;59.420;17.842;2023-10-31T00:39:21;3.30;;;1.50;;
14292;SDS011;62290;59.420;17.842;2023-10-31T00:41:49;2.88;;;1.23;;
14292;SDS011;62290;59.420;17.842;2023-10-31T00:44:17;5.00;;;1.70;;
14292;SDS011;62290;59.420;17.842;2023-10-31T00:46:45;2.63;;;1.30;;
14292;SDS011;62290;59.420;17.842;2023-10-31T00:49:13;3.45;;;1.13;;
14292;SDS011;62290;59.420;17.842;2023-10-31T00:51:42;5.45;;;1.38;;
14292;SDS011;62290;59.420;17.842;2023-10-31T00:54:10;4.88;;;1.00;;
14292;SDS011;62290;59.420;17.842;2023-10-31T00:56:39;5.47;;;1.42;;
14292;SDS011;62290;59.420;17.842;2023-10-31T00:59:07;4.05;;;0.90;;
14292;SDS011;62290;59.420;17.842;2023-10-31T01:01:35;3.30;;;1.10;;
14292;SDS011;62290;59.420;17.842;2023-10-31T01:04:03;3.22;;;1.00;;
14292;SDS011;62290;59.420;17.842;2023-10-31T01:06:32;3.13;;;0.98;;
14292;SDS011;62290;59.420;17.842;2023-10-31T01:09:01;4.93;;;1.35;;
14292;SDS011;62290;59.420;17.842;2023-10-31T01:11:29;3.15;;;1.17;;
14292;SDS011;62290;59.420;17.842;2023-10-31T01:13:57;4.45;;;1.38;;
14292;SDS011;62290;59.420;17.842;2023-10-31T01:16:25;2.17;;;1.20;;
14292;SDS011;62290;59.420;17.842;2023-10-31T01:18:53;3.35;;;1.10;;
14292;SDS011;62290;59.420;17.842;2023-10-31T01:21:21;3.58;;;1.40;;
14292;SDS011;62290;59.420;17.842;2023-10-31T01:23:49;6.28;;;1.70;;
14292;SDS011;62290;59.420;17.842;2023-10-31T01:26:18;2.35;;;1.00;;
14292;SDS011;62290;59.420;17.842;2023-10-31T01:28:46;5.20;;;1.70;;
14292;SDS011;62290;59.420;17.842;2023-10-31T01:31:15;5.63;;;1.02;;
14292;SDS011;62290;59.420;17.842;2023-10-31T01:33:44;6.45;;;1.63;;
14292;SDS011;62290;59.420;17.842;2023-10-31T01:36:13;4.15;;;1.60;;
14292;SDS011;62290;59.420;17.842;2023-10-31T01:38:41;2.92;;;0.95;;
14292;SDS011;62290;59.420;17.842;2023-10-31T01:41:09;2.10;;;0.93;;
14292;SDS011;62290;59.420;17.842;2023-10-31T01:43:38;2.35;;;0.85;;
14292;SDS011;62290;59.420;17.842;2023-10-31T01:46:08;2.55;;;1.02;;
14292;SDS011;62290;59.420;17.842;2023-10-31T01:48:37;2.80;;;1.58;;
14292;SDS011;62290;59.420;17.842;2023-10-31T01:51:05;3.20;;;1.33;;
14292;SDS011;62290;59.420;17.842;2023-10-31T01:53:34;2.17;;;1.13;;
14292;SDS011;62290;59.420;17.842;2023-10-31T01:56:03;2.45;;;1.10;;
14292;SDS011;62290;59.420;17.842;2023-10-31T01:58:32;4.45;;;1.42;;
14292;SDS011;62290;59.420;17.842;2023-10-31T02:01:04;4.55;;;1.02;;
14292;SDS011;62290;59.420;17.842;2023-10-31T02:03:33;4.28;;;0.98;;
14292;SDS011;62290;59.420;17.842;2023-10-31T02:06:01;3.92;;;1.70;;
14292;SDS011;62290;59.420;17.842;2023-10-31T02:08:30;2.83;;;1.27;;
14292;SDS011;62290;59.420;17.842;2023-10-31T02:10:58;1.90;;;0.80;;
14292;SDS011;62290;59.420;17.842;2023-10-31T02:13:26;4.13;;;1.45;;
14292;SDS011;62290;59.420;17.842;2023-10-31T02:15:54;4.32;;;1.10;;
14292;SDS011;62290;59.420;17.842;2023-10-31T02:18:23;3.15;;;1.20;;
14292;SDS011;62290;59.420;17.842;2023-10-31T02:20:51;5.93;;;1.23;;
14292;SDS011;62290;59.420;17.842;2023-10-31T02:23:21;2.75;;;1.10;;
14292;SDS011;62290;59.420;17.842;2023-10-31T02:25:49;5.50;;;1.30;;
14292;SDS011;62290;59.420;17.842;2023-10-31T02:28:17;5.13;;;0.98;;
14292;SDS011;62290;59.420;17.842;2023-10-31T02:30:45;3.30;;;0.80;;
14292;SDS011;62290;59.420;17.842;2023-10-31T02:33:13;3.90;;;1.00;;
14292;SDS011;62290;59.420;17.842;2023-10-31T02:35:41;3.17;;;1.00;;
14292;SDS011;62290;59.420;17.842;2023-10-31T02:38:09;3.80;;;1.25;;
14292;SDS011;62290;59.420;17.842;2023-10-31T02:40:38;3.15;;;1.42;;
14292;SDS011;62290;59.420;17.842;2023-10-31T02:43:06;3.20;;;1.35;;
14292;SDS011;62290;59.420;17.842;2023-10-31T02:45:34;3.67;;;0.80;;
14292;SDS011;62290;59.420;17.842;2023-10-31T02:48:02;4.65;;;1.50;;
14292;SDS011;62290;59.420;17.842;2023-10-31T02:50:31;3.22;;;0.98;;
14292;SDS011;62290;59.420;17.842;2023-10-31T02:52:58;3.88;;;0.93;;
14292;SDS011;62290;59.420;17.842;2023-10-31T02:55:26;3.15;;;1.63;;
14292;SDS011;62290;59.420;17.842;2023-10-31T02:57:56;6.57;;;1.52;;
14292;SDS011;62290;59.420;17.842;2023-10-31T03:00:24;2.63;;;1.10;;
14292;SDS011;62290;59.420;17.842;2023-10-31T03:02:52;6.22;;;1.35;;
14292;SDS011;62290;59.420;17.842;2023-10-31T03:05:20;3.83;;;1.10;;
14292;SDS011;62290;59.420;17.842;2023-10-31T03:07:49;3.42;;;1.17;;
14292;SDS011;62290;59.420;17.842;2023-10-31T03:10:17;1.77;;;0.65;;
14292;SDS011;62290;59.420;17.842;2023-10-31T03:12:45;3.08;;;1.00;;
14292;SDS011;62290;59.420;17.842;2023-10-31T03:15:14;2.05;;;0.80;;
14292;SDS011;62290;59.420;17.842;2023-10-31T03:17:43;4.30;;;1.45;;
14292;SDS011;62290;59.420;17.842;2023-10-31T03:20:11;3.08;;;1.05;;
14292;SDS011;62290;59.420;17.842;2023-10-31T03:22:39;2.45;;;1.10;;
14292;SDS011;62290;59.420;17.842;2023-10-31T03:25:07;2.08;;;1.17;;
14292;SDS011;62290;59.420;17.842;2023-10-31T03:27:35;8.45;;;2.05;;
14292;SDS011;62290;59.420;17.842;2023-10-31T03:30:04;3.22;;;1.15;;
14292;SDS011;62290;59.420;17.842;2023-10-31T03:32:33;5.75;;;1.92;;
14292;SDS011;62290;59.420;17.842;2023-10-31T03:35:02;5.80;;;1.48;;
14292;SDS011;62290;59.420;17.842;2023-10-31T03:37:30;3.33;;;1.05;;
14292;SDS011;62290;59.420;17.842;2023-10-31T03:39:58;2.95;;;1.48;;
14292;SDS011;62290;59.420;17.842;2023-10-31T03:42:26;3.13;;;1.02;;
14292;SDS011;62290;59.420;17.842;2023-10-31T03:44:55;2.38;;;1.10;;
14292;SDS011;62290;59.420;17.842;2023-10-31T03:47:23;5.00;;;1.17;;
14292;SDS011;62290;59.420;17.842;2023-10-31T03:49:52;3.38;;;1.55;;
14292;SDS011;62290;59.420;17.842;2023-10-31T03:52:20;5.13;;;1.10;;
14292;SDS011;62290;59.420;17.842;2023-10-31T03:54:48;3.25;;;1.02;;
14292;SDS011;62290;59.420;17.842;2023-10-31T03:57:16;5.20;;;1.17;;
14292;SDS011;62290;59.420;17.842;2023-10-31T03:59:44;5.10;;;1.38;;
14292;SDS011;62290;59.420;17.842;2023-10-31T04:02:12;4.30;;;1.40;;
14292;SDS011;62290;59.420;17.842;2023-10-31T04:04:41;4.43;;;1.00;;
14292;SDS011;62290;59.420;17.842;2023-10-31T04:07:10;4.47;;;1.38;;
14292;SDS011;62290;59.420;17.842;2023-10-31T04:09:38;3.13;;;1.45;;
14292;SDS011;62290;59.420;17.842;2023-10-31T04:12:06;3.58;;;1.20;;
14292;SDS011;62290;59.420;17.842;2023-10-31T04:14:34;2.50;;;1.10;;
14292;SDS011;62290;59.420;17.842;2023-10-31T04:17:02;3.38;;;1.30;;
14292;SDS011;62290;59.420;17.842;2023-10-31T04:19:30;5.57;;;1.05;;
14292;SDS011;62290;59.420;17.842;2023-10-31T04:21:58;4.70;;;1.40;;
14292;SDS011;62290;59.420;17.842;2023-10-31T04:24:28;2.20;;;1.13;;
14292;SDS011;62290;59.420;17.842;2023-10-31T04:26:56;4.00;;;1.30;;
14292;SDS011;62290;59.420;17.842;2023-10-31T04:29:24;3.88;;;1.27;;
14292;SDS011;62290;59.420;17.842;2023-10-31T04:31:52;3.35;;;1.30;;
14292;SDS011;62290;59.420;17.842;2023-10-31T04:34:20;2.58;;;1.20;;
14292;SDS011;62290;59.420;17.842;2023-10-31T04:36:48;4.28;;;1.10;;
14292;SDS011;62290;59.420;17.842;2023-10-31T04:39:16;3.40;;;1.10;;
14292;SDS011;62290;59.420;17.842;2023-10-31T04:41:45;3.15;;;1.10;;
14292;SDS011;62290;59.420;17.842;2023-10-31T04:44:13;3.28;;;1.60;;
14292;SDS011;62290;59.420;17.842;2023-10-31T04:46:41;3.63;;;1.17;;
14292;SDS011;62290;59.420;17.842;2023-10-31T04:49:09;2.40;;;0.98;;
14292;SDS011;62290;59.420;17.842;2023-10-31T04:51:37;2.65;;;1.40;;
14292;SDS011;62290;59.420;17.842;2023-10-31T04:54:05;1.73;;;0.95;;
14292;SDS011;62290;59.420;17.842;2023-10-31T04:56:33;2.08;;;0.65;;
14292;SDS011;62290;59.420;17.842;2023-10-31T04:59:03;3.05;;;0.85;;
14292;SDS011;62290;59.420;17.842;2023-10-31T05:01:31;2.28;;;0.85;;
14292;SDS011;62290;59.420;17.842;2023-10-31T05:03:59;1.80;;;0.60;;
14292;SDS011;62290;59.420;17.842;2023-10-31T05:06:38;2.50;;;0.82;;
14292;SDS011;62290;59.420;17.842;2023-10-31T05:09:06;1.98;;;0.73;;
14292;SDS011;62290;59.420;17.842;2023-10-31T05:11:35;7.20;;;0.95;;
14292;SDS011;62290;59.420;17.842;2023-10-31T05:14:04;1.75;;;0.70;;
14292;SDS011;62290;59.420;17.842;2023-10-31T05:16:38;1.55;;;0.93;;
14292;SDS011;62290;59.420;17.842;2023-10-31T05:19:07;3.65;;;0.90;;
14292;SDS011;62290;59.420;17.842;2023-10-31T05:21:35;1.20;;;0.70;;
14292;SDS011;62290;59.420;17.842;2023-10-31T05:24:03;1.85;;;0.70;;
14292;SDS011;62290;59.420;17.842;2023-10-31T05:26:32;1.00;;;0.73;;
14292;SDS011;62290;59.420;17.842;2023-10-31T05:29:00;2.55;;;1.05;;
14292;SDS011;62290;59.420;17.842;2023-10-31T05:31:30;1.73;;;0.88;;
14292;SDS011;62290;59.420;17.842;2023-10-31T05:33:58;1.35;;;0.50;;
14292;SDS011;62290;59.420;17.842;2023-10-31T05:36:25;1.45;;;0.60;;
14292;SDS011;62290;59.420;17.842;2023-10-31T05:38:54;1.42;;;0.65;;
14292;SDS011;62290;59.420;17.842;2023-10-31T05:41:22;1.38;;;0.60;;
14292;SDS011;62290;59.420;17.842;2023-10-31T05:43:50;1.30;;;0.60;;
14292;SDS011;62290;59.420;17.842;2023-10-31T05:46:18;0.73;;;0.45;;
14292;SDS011;62290;59.420;17.842;2023-10-31T05:48:48;1.15;;;0.60;;
14292;SDS011;62290;59.420;17.842;2023-10-31T05:51:17;0.73;;;0.50;;
14292;SDS011;62290;59.420;17.842;2023-10-31T05:53:46;1.10;;;0.50;;
14292;SDS011;62290;59.420;17.842;2023-10-31T05:56:15;2.30;;;0.65;;
14292;SDS011;62290;59.420;17.842;2023-10-31T05:58:44;4.00;;;0.50;;
14292;SDS011;62290;59.420;17.842;2023-10-31T06:01:12;3.30;;;0.90;;
14292;SDS011;62290;59.420;17.842;2023-10-31T06:03:40;1.00;;;0.60;;
14292;SDS011;62290;59.420;17.842;2023-10-31T06:06:12;0.95;;;0.47;;
14292;SDS011;62290;59.420;17.842;2023-10-31T06:08:40;1.60;;;0.60;;
14292;SDS011;62290;59.420;17.842;2023-10-31T06:11:09;3.30;;;0.63;;
14292;SDS011;62290;59.420;17.842;2023-10-31T06:13:39;1.33;;;0.68;;
14292;SDS011;62290;59.420;17.842;2023-10-31T06:16:07;1.20;;;0.40;;
14292;SDS011;62290;59.420;17.842;2023-10-31T06:18:35;1.95;;;0.50;;
14292;SDS011;62290;59.420;17.842;2023-10-31T06:21:05;1.38;;;0.50;;
14292;SDS011;62290;59.420;17.842;2023-10-31T06:23:37;3.67;;;0.90;;
14292;SDS011;62290;59.420;17.842;2023-10-31T06:26:05;1.08;;;0.40;;
14292;SDS011;62290;59.420;17.842;2023-10-31T06:28:33;0.60;;;0.30;;
14292;SDS011;62290;59.420;17.842;2023-10-31T06:31:10;0.75;;;0.30;;
14292;SDS011;62290;59.420;17.842;2023-10-31T06:33:39;1.35;;;0.52;;
14292;SDS011;62290;59.420;17.842;2023-10-31T06:36:07;0.98;;;0.40;;
14292;SDS011;62290;59.420;17.842;2023-10-31T06:38:37;0.38;;;0.30;;
14292;SDS011;62290;59.420;17.842;2023-10-31T06:41:05;1.95;;;0.40;;
14292;SDS011;62290;59.420;17.842;2023-10-31T06:43:33;1.48;;;0.45;;
14292;SDS011;62290;59.420;17.842;2023-10-31T06:46:01;1.58;;;0.45;;
14292;SDS011;62290;59.420;17.842;2023-10-31T06:48:30;2.13;;;0.30;;
14292;SDS011;62290;59.420;17.842;2023-10-31T06:50:58;0.40;;;0.40;;
14292;SDS011;62290;59.420;17.842;2023-10-31T06:53:26;0.30;;;0.30;;
14292;SDS011;62290;59.420;17.842;2023-10-31T06:55:56;2.13;;;0.38;;
14292;SDS011;62290;59.420;17.842;2023-10-31T06:58:24;2.70;;;0.50;;
14292;SDS011;62290;59.420;17.842;2023-10-31T07:00:52;0.80;;;0.70;;
14292;SDS011;62290;59.420;17.842;2023-10-31T07:03:21;0.55;;;0.43;;
14292;SDS011;62290;59.420;17.842;2023-10-31T07:05:49;0.45;;;0.45;;
14292;SDS011;62290;59.420;17.842;2023-10-31T07:08:18;0.50;;;0.50;;
14292;SDS011;62290;59.420;17.842;2023-10-31T07:10:46;1.85;;;0.50;;
14292;SDS011;62290;59.420;17.842;2023-10-31T07:13:15;0.85;;;0.57;;
14292;SDS011;62290;59.420;17.842;2023-10-31T07:15:44;2.10;;;0.55;;
14292;SDS011;62290;59.420;17.842;2023-10-31T07:18:13;0.45;;;0.40;;
14292;SDS011;62290;59.420;17.842;2023-10-31T07:20:41;0.50;;;0.43;;
14292;SDS011;62290;59.420;17.842;2023-10-31T07:23:09;0.43;;;0.43;;
14292;SDS011;62290;59.420;17.842;2023-10-31T07:25:37;0.50;;;0.50;;
14292;SDS011;62290;59.420;17.842;2023-10-31T07:28:05;1.27;;;0.47;;
14292;SDS011;62290;59.420;17.842;2023-10-31T07:30:34;1.25;;;0.57;;
14292;SDS011;62290;59.420;17.842;2023-10-31T07:33:02;1.05;;;0.60;;
14292;SDS011;62290;59.420;17.842;2023-10-31T07:35:30;0.80;;;0.70;;
14292;SDS011;62290;59.420;17.842;2023-10-31T07:37:58;0.70;;;0.63;;
14292;SDS011;62290;59.420;17.842;2023-10-31T07:40:26;0.55;;;0.55;;
14292;SDS011;62290;59.420;17.842;2023-10-31T07:42:54;0.47;;;0.43;;
14292;SDS011;62290;59.420;17.842;2023-10-31T07:45:22;2.33;;;0.80;;
14292;SDS011;62290;59.420;17.842;2023-10-31T07:47:52;3.08;;;0.80;;
14292;SDS011;62290;59.420;17.842;2023-10-31T07:50:20;0.98;;;0.70;;
14292;SDS011;62290;59.420;17.842;2023-10-31T07:52:48;0.80;;;0.80;;
14292;SDS011;62290;59.420;17.842;2023-10-31T07:55:16;0.77;;;0.77;;
14292;SDS011;62290;59.420;17.842;2023-10-31T07:57:44;1.00;;;0.50;;
14292;SDS011;62290;59.420;17.842;2023-10-31T08:00:12;1.00;;;0.73;;
14292;SDS011;62290;59.420;17.842;2023-10-31T08:02:40;1.42;;;0.98;;
14292;SDS011;62290;59.420;17.842;2023-10-31T08:05:10;1.95;;;0.90;;
14292;SDS011;62290;59.420;17.842;2023-10-31T08:07:38;1.33;;;0.82;;
14292;SDS011;62290;59.420;17.842;2023-10-31T08:10:07;2.65;;;1.00;;
14292;SDS011;62290;59.420;17.842;2023-10-31T08:12:35;1.00;;;0.90;;
14292;SDS011;62290;59.420;17.842;2023-10-31T08:15:03;3.33;;;1.13;;
14292;SDS011;62290;59.420;17.842;2023-10-31T08:17:32;2.83;;;0.90;;
14292;SDS011;62290;59.420;17.842;2023-10-31T08:20:00;2.13;;;1.02;;
14292;SDS011;62290;59.420;17.842;2023-10-31T08:22:31;1.10;;;1.00;;
14292;SDS011;62290;59.420;17.842;2023-10-31T08:24:59;1.45;;;0.98;;
14292;SDS011;62290;59.420;17.842;2023-10-31T08:27:27;2.38;;;1.05;;
14292;SDS011;62290;59.420;17.842;2023-10-31T08:29:55;1.67;;;0.98;;
14292;SDS011;62290;59.420;17.842;2023-10-31T08:32:23;0.93;;;0.88;;
14292;SDS011;62290;59.420;17.842;2023-10-31T08:34:51;3.33;;;0.90;;
14292;SDS011;62290;59.420;17.842;2023-10-31T08:37:20;1.17;;;0.90;;
14292;SDS011;62290;59.420;17.842;2023-10-31T08:39:50;1.05;;;0.77;;
14292;SDS011;62290;59.420;17.842;2023-10-31T08:42:18;5.88;;;0.88;;
14292;SDS011;62290;59.420;17.842;2023-10-31T08:44:46;2.25;;;0.70;;
14292;SDS011;62290;59.420;17.842;2023-10-31T08:47:14;1.85;;;0.80;;
14292;SDS011;62290;59.420;17.842;2023-10-31T08:49:42;1.17;;;0.50;;
14292;SDS011;62290;59.420;17.842;2023-10-31T08:52:10;0.82;;;0.70;;
14292;SDS011;62290;59.420;17.842;2023-10-31T08:54:38;1.45;;;0.80;;
14292;SDS011;62290;59.420;17.842;2023-10-31T08:57:07;5.43;;;0.80;;
14292;SDS011;62290;59.420;17.842;2023-10-31T08:59:35;4.78;;;1.00;;
14292;SDS011;62290;59.420;17.842;2023-10-31T09:02:03;1.63;;;0.50;;
14292;SDS011;62290;59.420;17.842;2023-10-31T09:04:31;1.77;;;0.75;;
14292;SDS011;62290;59.420;17.842;2023-10-31T09:06:59;2.47;;;0.82;;
14292;SDS011;62290;59.420;17.842;2023-10-31T09:09:27;1.08;;;0.50;;
14292;SDS011;62290;59.420;17.842;2023-10-31T09:11:55;1.20;;;0.73;;
14292;SDS011;62290;59.420;17.842;2023-10-31T09:14:25;5.45;;;0.80;;
14292;SDS011;62290;59.420;17.842;2023-10-31T09:16:55;1.67;;;0.70;;
14292;SDS011;62290;59.420;17.842;2023-10-31T09:19:23;3.25;;;0.80;;
14292;SDS011;62290;59.420;17.842;2023-10-31T09:21:51;1.55;;;1.02;;
14292;SDS011;62290;59.420;17.842;2023-10-31T09:24:19;3.90;;;1.25;;
14292;SDS011;62290;59.420;17.842;2023-10-31T09:26:47;1.15;;;0.80;;
14292;SDS011;62290;59.420;17.842;2023-10-31T09:29:15;0.70;;;0.70;;
14292;SDS011;62290;59.420;17.842;2023-10-31T09:31:56;1.50;;;0.75;;
14292;SDS011;62290;59.420;17.842;2023-10-31T09:34:25;1.13;;;1.02;;
14292;SDS011;62290;59.420;17.842;2023-10-31T09:36:53;0.85;;;0.63;;
14292;SDS011;62290;59.420;17.842;2023-10-31T09:39:22;2.75;;;0.90;;
14292;SDS011;62290;59.420;17.842;2023-10-31T09:41:50;1.02;;;0.77;;
14292;SDS011;62290;59.420;17.842;2023-10-31T09:44:20;1.52;;;0.60;;
14292;SDS011;62290;59.420;17.842;2023-10-31T09:46:49;0.65;;;0.60;;
14292;SDS011;62290;59.420;17.842;2023-10-31T09:49:21;1.85;;;0.52;;
14292;SDS011;62290;59.420;17.842;2023-10-31T09:51:49;2.05;;;0.88;;
14292;SDS011;62290;59.420;17.842;2023-10-31T09:54:17;2.35;;;0.82;;
14292;SDS011;62290;59.420;17.842;2023-10-31T09:56:45;1.30;;;0.63;;
14292;SDS011;62290;59.420;17.842;2023-10-31T09:59:14;7.22;;;0.80;;
14292;SDS011;62290;59.420;17.842;2023-10-31T10:01:43;2.63;;;0.70;;
14292;SDS011;62290;59.420;17.842;2023-10-31T10:04:11;1.17;;;0.63;;
14292;SDS011;62290;59.420;17.842;2023-10-31T10:06:50;2.70;;;0.68;;
14292;SDS011;62290;59.420;17.842;2023-10-31T10:09:19;0.93;;;0.70;;
14292;SDS011;62290;59.420;17.842;2023-10-31T10:11:48;0.70;;;0.50;;
14292;SDS011;62290;59.420;17.842;2023-10-31T10:14:16;0.73;;;0.55;;
14292;SDS011;62290;59.420;17.842;2023-10-31T10:16:44;1.23;;;0.60;;
14292;SDS011;62290;59.420;17.842;2023-10-31T10:19:16;3.90;;;0.80;;
14292;SDS011;62290;59.420;17.842;2023-10-31T10:21:46;1.30;;;0.55;;
14292;SDS011;62290;59.420;17.842;2023-10-31T10:24:17;3.38;;;0.60;;
14292;SDS011;62290;59.420;17.842;2023-10-31T10:26:46;1.33;;;0.70;;
14292;SDS011;62290;59.420;17.842;2023-10-31T10:29:14;1.60;;;0.77;;
14292;SDS011;62290;59.420;17.842;2023-10-31T10:31:43;3.13;;;0.65;;
14292;SDS011;62290;59.420;17.842;2023-10-31T10:34:13;1.58;;;0.63;;
14292;SDS011;62290;59.420;17.842;2023-10-31T10:36:43;1.95;;;0.57;;
14292;SDS011;62290;59.420;17.842;2023-10-31T10:39:14;2.80;;;0.60;;
14292;SDS011;62290;59.420;17.842;2023-10-31T10:41:50;1.00;;;0.70;;
14292;SDS011;62290;59.420;17.842;2023-10-31T10:44:23;1.73;;;1.00;;
14292;SDS011;62290;59.420;17.842;2023-10-31T10:46:59;0.60;;;0.60;;
14292;SDS011;62290;59.420;17.842;2023-10-31T10:49:32;1.35;;;0.70;;
14292;SDS011;62290;59.420;17.842;2023-10-31T10:52:05;0.50;;;0.50;;
14292;SDS011;62290;59.420;17.842;2023-10-31T10:54:44;1.67;;;0.52;;
14292;SDS011;62290;59.420;17.842;2023-10-31T10:57:20;0.77;;;0.40;;
14292;SDS011;62290;59.420;17.842;2023-10-31T10:59:55;1.17;;;0.70;;
14292;SDS011;62290;59.420;17.842;2023-10-31T11:02:30;0.98;;;0.45;;
14292;SDS011;62290;59.420;17.842;2023-10-31T11:05:00;1.63;;;0.57;;
14292;SDS011;62290;59.420;17.842;2023-10-31T11:07:28;0.60;;;0.60;;
14292;SDS011;62290;59.420;17.842;2023-10-31T11:09:59;1.77;;;0.70;;
14292;SDS011;62290;59.420;17.842;2023-10-31T11:12:29;0.60;;;0.57;;
14292;SDS011;62290;59.420;17.842;2023-10-31T11:14:58;0.80;;;0.70;;
14292;SDS011;62290;59.420;17.842;2023-10-31T11:17:28;1.27;;;0.65;;
14292;SDS011;62290;59.420;17.842;2023-10-31T11:19:59;2.15;;;0.90;;
14292;SDS011;62290;59.420;17.842;2023-10-31T11:22:36;0.60;;;0.52;;
14292;SDS011;62290;59.420;17.842;2023-10-31T11:25:06;1.45;;;0.57;;
14292;SDS011;62290;59.420;17.842;2023-10-31T11:27:45;1.38;;;0.70;;
14292;SDS011;62290;59.420;17.842;2023-10-31T11:30:19;1.45;;;0.68;;
14292;SDS011;62290;59.420;17.842;2023-10-31T11:32:48;0.68;;;0.60;;
14292;SDS011;62290;59.420;17.842;2023-10-31T11:35:19;0.60;;;0.60;;
14292;SDS011;62290;59.420;17.842;2023-10-31T11:37:48;1.52;;;0.65;;
14292;SDS011;62290;59.420;17.842;2023-10-31T11:40:29;2.25;;;0.88;;
14292;SDS011;62290;59.420;17.842;2023-10-31T11:43:01;1.80;;;0.60;;
14292;SDS011;62290;59.420;17.842;2023-10-31T11:45:34;1.67;;;0.60;;
14292;SDS011;62290;59.420;17.842;2023-10-31T11:48:03;0.52;;;0.40;;
14292;SDS011;62290;59.420;17.842;2023-10-31T11:50:32;0.85;;;0.52;;
14292;SDS011;62290;59.420;17.842;2023-10-31T11:53:02;0.95;;;0.55;;
14292;SDS011;62290;59.420;17.842;2023-10-31T11:55:34;0.75;;;0.45;;
14292;SDS011;62290;59.420;17.842;2023-10-31T11:58:12;0.90;;;0.45;;
14292;SDS011;62290;59.420;17.842;2023-10-31T12:00:41;1.85;;;0.50;;
14292;SDS011;62290;59.420;17.842;2023-10-31T12:03:09;1.50;;;0.45;;
14292;SDS011;62290;59.420;17.842;2023-10-31T12:05:37;0.95;;;0.57;;
14292;SDS011;62290;59.420;17.842;2023-10-31T12:08:05;1.13;;;0.75;;
14292;SDS011;62290;59.420;17.842;2023-10-31T12:10:34;1.98;;;0.75;;
14292;SDS011;62290;59.420;17.842;2023-10-31T12:13:02;1.83;;;0.80;;
14292;SDS011;62290;59.420;17.842;2023-10-31T12:15:30;4.28;;;0.80;;
14292;SDS011;62290;59.420;17.842;2023-10-31T12:17:58;9.52;;;0.93;;
14292;SDS011;62290;59.420;17.842;2023-10-31T12:20:27;12.70;;;1.20;;
14292;SDS011;62290;59.420;17.842;2023-10-31T12:23:02;4.68;;;1.15;;
14292;SDS011;62290;59.420;17.842;2023-10-31T12:25:31;4.38;;;1.05;;
14292;SDS011;62290;59.420;17.842;2023-10-31T12:28:04;7.40;;;1.17;;
14292;SDS011;62290;59.420;17.842;2023-10-31T12:30:31;9.30;;;0.77;;
14292;SDS011;62290;59.420;17.842;2023-10-31T12:32:59;2.33;;;0.68;;
14292;SDS011;62290;59.420;17.842;2023-10-31T12:35:28;2.13;;;0.85;;
14292;SDS011;62290;59.420;17.842;2023-10-31T12:37:57;2.85;;;0.98;;
14292;SDS011;62290;59.420;17.842;2023-10-31T12:40:25;1.63;;;0.57;;
14292;SDS011;62290;59.420;17.842;2023-10-31T12:42:53;2.70;;;0.65;;
14292;SDS011;62290;59.420;17.842;2023-10-31T12:45:23;2.47;;;0.65;;
14292;SDS011;62290;59.420;17.842;2023-10-31T12:48:01;5.80;;;1.05;;
14292;SDS011;62290;59.420;17.842;2023-10-31T12:50:31;1.95;;;0.52;;
14292;SDS011;62290;59.420;17.842;2023-10-31T12:52:59;1.25;;;0.57;;
14292;SDS011;62290;59.420;17.842;2023-10-31T12:55:30;0.98;;;0.45;;
14292;SDS011;62290;59.420;17.842;2023-10-31T12:57:58;0.45;;;0.28;;
14292;SDS011;62290;59.420;17.842;2023-10-31T13:00:31;2.13;;;0.50;;
14292;SDS011;62290;59.420;17.842;2023-10-31T13:03:01;1.60;;;0.55;;
14292;SDS011;62290;59.420;17.842;2023-10-31T13:05:30;1.95;;;0.57;;
14292;SDS011;62290;59.420;17.842;2023-10-31T13:07:59;1.42;;;0.60;;
14292;SDS011;62290;59.420;17.842;2023-10-31T13:10:32;0.63;;;0.47;;
14292;SDS011;62290;59.420;17.842;2023-10-31T13:13:00;0.80;;;0.47;;
14292;SDS011;62290;59.420;17.842;2023-10-31T13:15:29;1.10;;;0.40;;
14292;SDS011;62290;59.420;17.842;2023-10-31T13:17:59;0.50;;;0.40;;
14292;SDS011;62290;59.420;17.842;2023-10-31T13:20:27;0.60;;;0.40;;
14292;SDS011;62290;59.420;17.842;2023-10-31T13:22:55;0.65;;;0.30;;
14292;SDS011;62290;59.420;17.842;2023-10-31T13:25:24;1.05;;;0.40;;
14292;SDS011;62290;59.420;17.842;2023-10-31T13:27:52;0.55;;;0.30;;
14292;SDS011;62290;59.420;17.842;2023-10-31T13:30:20;0.68;;;0.30;;
14292;SDS011;62290;59.420;17.842;2023-10-31T13:32:52;0.55;;;0.30;;
14292;SDS011;62290;59.420;17.842;2023-10-31T13:35:20;0.20;;;0.20;;
14292;SDS011;62290;59.420;17.842;2023-10-31T13:37:48;0.30;;;0.30;;
14292;SDS011;62290;59.420;17.842;2023-10-31T13:40:16;0.57;;;0.30;;
14292;SDS011;62290;59.420;17.842;2023-10-31T13:42:44;0.60;;;0.20;;
14292;SDS011;62290;59.420;17.842;2023-10-31T13:45:12;0.52;;;0.43;;
14292;SDS011;62290;59.420;17.842;2023-10-31T13:47:40;0.90;;;0.38;;
14292;SDS011;62290;59.420;17.842;2023-10-31T13:50:09;1.05;;;0.30;;
14292;SDS011;62290;59.420;17.842;2023-10-31T13:52:36;0.20;;;0.20;;
14292;SDS011;62290;59.420;17.842;2023-10-31T13:55:05;0.57;;;0.47;;
14292;SDS011;62290;59.420;17.842;2023-10-31T13:57:33;0.40;;;0.30;;
14292;SDS011;62290;59.420;17.842;2023-10-31T14:00:04;0.43;;;0.28;;
14292;SDS011;62290;59.420;17.842;2023-10-31T14:02:43;0.82;;;0.32;;
14292;SDS011;62290;59.420;17.842;2023-10-31T14:05:13;0.25;;;0.22;;
14292;SDS011;62290;59.420;17.842;2023-10-31T14:07:43;0.28;;;0.20;;
14292;SDS011;62290;59.420;17.842;2023-10-31T14:10:10;0.85;;;0.30;;
14292;SDS011;62290;59.420;17.842;2023-10-31T14:12:38;0.68;;;0.43;;
14292;SDS011;62290;59.420;17.842;2023-10-31T14:15:07;0.68;;;0.40;;
14292;SDS011;62290;59.420;17.842;2023-10-31T14:17:35;0.55;;;0.30;;
14292;SDS011;62290;59.420;17.842;2023-10-31T14:20:04;0.40;;;0.30;;
14292;SDS011;62290;59.420;17.842;2023-10-31T14:22:34;0.52;;;0.32;;
14292;SDS011;62290;59.420;17.842;2023-10-31T14:25:02;0.57;;;0.20;;
14292;SDS011;62290;59.420;17.842;2023-10-31T14:27:33;2.50;;;0.30;;
14292;SDS011;62290;59.420;17.842;2023-10-31T14:30:01;0.17;;;0.17;;
14292;SDS011;62290;59.420;17.842;2023-10-31T14:32:30;0.47;;;0.20;;
14292;SDS011;62290;59.420;17.842;2023-10-31T14:34:58;0.60;;;0.40;;
14292;SDS011;62290;59.420;17.842;2023-10-31T14:37:26;0.52;;;0.30;;
14292;SDS011;62290;59.420;17.842;2023-10-31T14:39:56;0.43;;;0.10;;
14292;SDS011;62290;59.420;17.842;2023-10-31T14:42:24;0.30;;;0.20;;
14292;SDS011;62290;59.420;17.842;2023-10-31T14:44:52;0.65;;;0.20;;